メインページ
METAR-TAF:

METAR-TAF

空港 :

コンセプシオン, チリ

緯度: 36-46S, 経度: 073-03W, 海抜: 12m

現時点の気象観測

当レポートは29分前の03:00(UTC)に作成
無風
気温 10°C
湿度 100%
気圧 1022 hPa
視程: 2000m
高度800ftの千切れ雲あり
靄,

METAR: SCIE 160300Z 00000KT 2000 BR BKN008 10/10 Q1022

時間: 23:29 (03:29 UTC)

予報

当レポートは4時間47分前の22:42(UTC)に作成
予報は16日の 00時(UTC)から 16日の 24時(UTC)まで有効
の風 4kt
視程10km以上
高度2000ftの雲は散在している
16日の 02時(UTC)から 16日の 04時(UTC)まで徐々に
視程: 8000m
高度1000ftの雲は散在している
16日の 03時(UTC)から 16日の 07時(UTC)まで一時的に
変向風 2kt
視程: 3000m
高度300ftの千切れ雲あり
16日の 08時(UTC)から 16日の 10時(UTC)まで徐々に
視程: 5000m
高度600ftの雲は散在している
高度1500ftの千切れ雲あり
霧雨
16日の 13時(UTC)から 16日の 15時(UTC)まで徐々に
視程: 8000m
高度1500ftの雲は散在している
16日の 16時(UTC)から 16日の 18時(UTC)まで徐々に
の風 10kt
視程10km以上
高度2500ftの雲は散在している
高度5000ftの雲は散在している

TAF: SCIE 152242Z 1600/1624 08004KT 9999 SCT020 TX13/1618Z TN11/1611Z BECMG 1602/1604 8000 SCT010 TEMPO 1603/1607 VRB02KT 3000 BR BKN003 BECMG 1608/1610 5000 DZ SCT006 BKN015 BECMG 1613/1615 8000 NSW SCT015 BECMG 1616/1618 36010KT 9999 SCT025 SCT050

4,000以上の空港の気象観測と天気予報(METAR報とTAF報)

利用可能な観測所は地図上に黄色い丸と赤い丸で示す。

丸の上にカーソルを重ねると観測所名を参照できる。

次にクリックすると気象観測と天気予報を参照できる。

マップの切り替え:黒色「×」印の緑ボタンをクリックして拡大、「-」印の緑ボタンをクリックして縮小、緑色の三角印をクリックして隣りの地図に切り替え


METAR-TAF: